Decoded Metar for LELO (LOGRONO in SPAIN) (IATA:RJL) | Meteo·Mobile Aviation Weather
aviador You're here:

LELO Decoded Metar

LOGRONO in SPAIN
Report Time2019-07-22 16:00:00
UTC Time2019-07-22 16:06:23
Flight Rules vfr VFR
Wind080° at 11 kt
Visibility9999 m
Phenomena:N/A
Clouds:N/A
Expected CloudBase > 12,000 ft AGL from Temp-Dew spread
CeilingNone
Temp38°C (ISA +25)
Dew Point08°C (16% RH)
Heat Index35.9°C
AAT33.5°C
QNH1017 hPa
Density Alt4,058 ft
Elevation1,191 ft
Report Wrong Elevation
Raw Report
METAR LELO 221600Z 08011KT 050V110 CAVOK 38/08 Q1017=

Extra information for LELO:More info

Metar Taf Metar & Taf Last 4 Metars F.Rules Stats Wind Profile Meteogram Temp Stats Airport Information Weather charts Add Link Nearby VenuesMetar ALERT Operation Metar Decoded Social comments